Time;durP1;ratioP1;P1;durP2;ratioP2;P2;SDS_P1;SDS_P2;PMS_P1;PMS_P2;Temp;Humidity;BMP_temperature;BMP_pressure;BME280_temperature;BME280_humidity;BME280_pressure;Samples;Min_cycle;Max_cycle;Signal;HPM_P1;HPM_P2
2022/11/24 00:01:03;;;;;;;2.40;0.50;;;7.10;99.90;;;;;;5115111;28;20743;-63
2022/11/24 00:03:30;;;;;;;2.40;0.50;;;7.00;99.90;;;;;;5114341;28;20416;-63
2022/11/24 00:06:03;;;;;;;3.50;0.50;;;7.00;99.90;;;;;;5115080;28;20430;-62
2022/11/24 00:08:30;;;;;;;1.45;0.50;;;7.00;99.90;;;;;;5113531;28;20416;-62
2022/11/24 00:11:01;;;;;;;2.00;0.50;;;7.00;99.90;;;;;;5114800;28;20426;-62
2022/11/24 00:13:28;;;;;;;3.90;0.70;;;7.00;99.90;;;;;;5113200;28;20416;-62
2022/11/24 00:16:03;;;;;;;2.47;0.47;;;7.00;99.90;;;;;;5118438;28;20432;-62
2022/11/24 00:18:30;;;;;;;3.40;0.50;;;7.00;99.90;;;;;;5118089;28;20444;-62
2022/11/24 00:20:58;;;;;;;2.70;0.50;;;7.00;99.90;;;;;;5119007;28;20826;-62
2022/11/24 00:23:25;;;;;;;1.00;0.40;;;7.10;99.90;;;;;;5118481;28;20445;-62
2022/11/24 00:25:52;;;;;;;1.30;0.40;;;7.10;99.90;;;;;;5118794;28;20424;-62
2022/11/24 00:28:19;;;;;;;0.95;0.40;;;7.10;99.90;;;;;;5118489;28;20841;-62
2022/11/24 00:30:46;;;;;;;3.10;0.70;;;7.00;99.90;;;;;;5119192;28;20451;-63
2022/11/24 00:33:12;;;;;;;1.80;0.40;;;7.00;99.90;;;;;;5118835;28;20428;-62
2022/11/24 00:35:39;;;;;;;2.33;0.50;;;7.00;99.90;;;;;;5117115;28;20442;-62
2022/11/24 00:38:07;;;;;;;1.30;0.50;;;7.00;99.90;;;;;;5117203;28;20846;-63
2022/11/24 00:40:34;;;;;;;2.03;0.40;;;7.00;99.90;;;;;;5118539;28;20481;-62
2022/11/24 00:43:01;;;;;;;2.28;0.50;;;7.00;99.90;;;;;;5117521;28;20412;-62
2022/11/24 00:45:28;;;;;;;1.40;0.50;;;7.00;99.90;;;;;;5117660;28;20438;-62
2022/11/24 00:47:54;;;;;;;1.90;0.50;;;7.10;99.90;;;;;;5118374;28;20420;-62
2022/11/24 00:50:24;;;;;;;2.15;0.50;;;7.10;99.90;;;;;;5118077;28;20794;-63
2022/11/24 00:52:50;;;;;;;2.83;0.40;;;7.10;99.90;;;;;;5118280;28;20422;-62
2022/11/24 00:55:19;;;;;;;3.53;0.50;;;7.10;99.90;;;;;;5118744;28;20504;-62
2022/11/24 00:57:45;;;;;;;2.70;0.50;;;7.10;99.90;;;;;;5118636;28;20400;-62
2022/11/24 01:00:13;;;;;;;1.87;0.50;;;7.10;99.90;;;;;;5114171;28;20531;-62
2022/11/24 01:02:40;;;;;;;3.80;0.50;;;7.10;99.90;;;;;;5116959;28;20423;-62
2022/11/24 01:05:07;;;;;;;3.30;0.50;;;7.00;99.90;;;;;;5117378;28;20435;-63
2022/11/24 01:07:34;;;;;;;3.50;0.50;;;7.10;99.90;;;;;;5116184;28;20412;-62
2022/11/24 01:10:01;;;;;;;1.52;0.40;;;7.00;99.90;;;;;;5097395;28;20724;-62
2022/11/24 01:12:29;;;;;;;1.40;0.50;;;7.00;99.90;;;;;;5098415;28;20422;-62
2022/11/24 01:14:56;;;;;;;1.75;0.50;;;7.00;99.90;;;;;;5097859;28;20432;-62
2022/11/24 01:17:23;;;;;;;1.98;0.40;;;7.00;99.90;;;;;;5103463;28;20426;-63
2022/11/24 01:19:50;;;;;;;2.40;0.50;;;7.00;99.90;;;;;;5116993;28;20839;-63
2022/11/24 01:22:17;;;;;;;2.53;0.47;;;7.00;99.90;;;;;;5117678;28;20459;-63
2022/11/24 01:24:44;;;;;;;1.52;0.45;;;7.10;99.90;;;;;;5116356;28;20523;-61
2022/11/24 01:27:11;;;;;;;1.50;0.40;;;7.00;99.90;;;;;;5117795;28;20419;-62
2022/11/24 01:29:39;;;;;;;2.80;0.40;;;7.00;99.90;;;;;;5116702;28;20427;-62
2022/11/24 01:32:06;;;;;;;1.70;0.50;;;6.90;99.90;;;;;;5118030;28;20697;-62
2022/11/24 01:34:35;;;;;;;2.20;0.40;;;6.90;99.90;;;;;;5117722;28;20424;-62
2022/11/24 01:37:02;;;;;;;2.00;0.40;;;6.90;99.90;;;;;;5116763;28;20523;-61
2022/11/24 01:39:29;;;;;;;2.60;0.45;;;6.90;99.90;;;;;;5117525;28;20428;-61
2022/11/24 01:41:56;;;;;;;1.30;0.40;;;6.90;99.90;;;;;;5116796;28;20422;-61
2022/11/24 01:44:25;;;;;;;2.03;0.40;;;6.90;99.90;;;;;;5117777;28;20438;-62
2022/11/24 01:46:57;;;;;;;2.95;0.50;;;6.90;99.90;;;;;;5117944;28;20514;-61
2022/11/24 01:49:30;;;;;;;1.40;0.40;;;6.90;99.90;;;;;;5117603;28;20695;-61
2022/11/24 01:52:04;;;;;;;1.60;0.50;;;6.80;99.90;;;;;;5117077;28;20470;-62
2022/11/24 01:54:35;;;;;;;1.85;0.40;;;6.80;99.90;;;;;;5116192;28;20506;-62
2022/11/24 01:57:09;;;;;;;1.33;0.50;;;6.80;99.90;;;;;;5117534;28;20428;-61
2022/11/24 01:59:37;;;;;;;1.92;0.50;;;6.90;99.90;;;;;;5116687;28;20441;-62
2022/11/24 02:02:05;;;;;;;2.42;0.40;;;6.90;99.90;;;;;;5117232;28;20499;-62
2022/11/24 02:04:33;;;;;;;2.00;0.40;;;7.00;99.90;;;;;;5115563;28;20428;-62
2022/11/24 02:07:03;;;;;;;1.73;0.40;;;7.20;99.90;;;;;;5117027;28;20415;-61
2022/11/24 02:09:34;;;;;;;2.70;0.40;;;7.20;99.90;;;;;;5115927;28;20519;-62
2022/11/24 02:12:02;;;;;;;1.67;0.50;;;7.30;99.90;;;;;;5117106;28;20420;-63
2022/11/24 02:14:30;;;;;;;1.20;0.40;;;7.40;99.90;;;;;;5116997;28;20428;-64
2022/11/24 02:16:56;;;;;;;2.28;0.40;;;7.50;99.90;;;;;;5117285;28;20428;-61
2022/11/24 02:19:36;;;;;;;1.30;0.40;;;7.50;99.90;;;;;;5116129;28;20426;-62
2022/11/24 02:22:04;;;;;;;0.90;0.40;;;7.60;99.90;;;;;;5115591;28;20422;-62
2022/11/24 02:24:38;;;;;;;1.30;0.40;;;7.60;99.90;;;;;;5117308;28;20707;-62
2022/11/24 02:27:06;;;;;;;3.20;0.40;;;7.50;99.90;;;;;;5117037;28;20416;-61
2022/11/24 02:29:33;;;;;;;0.85;0.32;;;7.50;99.90;;;;;;5116431;28;20853;-60
2022/11/24 02:32:04;;;;;;;1.27;0.40;;;7.50;99.90;;;;;;5115866;28;20423;-61
2022/11/24 02:34:31;;;;;;;0.80;0.40;;;7.50;99.90;;;;;;5116606;28;20423;-62
2022/11/24 02:36:58;;;;;;;1.40;0.40;;;7.50;99.90;;;;;;5115963;28;20424;-61
2022/11/24 02:39:25;;;;;;;1.10;0.30;;;7.50;99.90;;;;;;5116355;28;20511;-61
2022/11/24 02:41:56;;;;;;;0.70;0.30;;;7.50;99.90;;;;;;5116320;28;20416;-62
2022/11/24 02:44:30;;;;;;;1.92;0.40;;;7.40;99.90;;;;;;5117074;28;20430;-61
2022/11/24 02:47:04;;;;;;;1.60;0.30;;;7.50;99.90;;;;;;5116359;28;20875;-61
2022/11/24 02:49:31;;;;;;;1.60;0.40;;;7.40;99.90;;;;;;5116260;28;20428;-61
2022/11/24 02:51:58;;;;;;;0.77;0.30;;;7.40;99.90;;;;;;5115417;28;20735;-61
2022/11/24 02:54:25;;;;;;;1.20;0.30;;;7.30;99.90;;;;;;5116545;28;20431;-61
2022/11/24 02:56:52;;;;;;;0.68;0.40;;;7.30;99.90;;;;;;5116376;28;20424;-61
2022/11/24 02:59:19;;;;;;;0.80;0.30;;;7.20;99.90;;;;;;5116232;28;20434;-61
2022/11/24 03:01:47;;;;;;;1.92;0.30;;;7.20;99.90;;;;;;5115843;28;20422;-61
2022/11/24 03:04:14;;;;;;;2.08;0.38;;;7.20;99.90;;;;;;5115850;28;20913;-61
2022/11/24 03:06:42;;;;;;;0.82;0.30;;;7.10;99.90;;;;;;5115079;28;20812;-62
2022/11/24 03:09:09;;;;;;;1.40;0.30;;;7.10;99.90;;;;;;5115849;28;20418;-61
2022/11/24 03:11:35;;;;;;;1.20;0.30;;;7.00;99.90;;;;;;5115647;28;20423;-61
2022/11/24 03:14:02;;;;;;;1.10;0.30;;;7.10;99.90;;;;;;5115792;28;20430;-61
2022/11/24 03:16:29;;;;;;;1.20;0.40;;;7.00;99.90;;;;;;5116068;28;20427;-61
2022/11/24 03:18:57;;;;;;;1.38;0.40;;;7.00;99.90;;;;;;5113960;28;20532;-62
2022/11/24 03:21:24;;;;;;;0.60;0.30;;;7.00;99.90;;;;;;5115771;28;20415;-60
2022/11/24 03:23:52;;;;;;;2.50;0.32;;;7.00;99.90;;;;;;5115751;28;20421;-60
2022/11/24 03:26:23;;;;;;;1.35;0.30;;;7.00;99.90;;;;;;5114767;28;21150;-61
2022/11/24 03:28:50;;;;;;;1.00;0.30;;;6.90;99.90;;;;;;5115940;28;20423;-61
2022/11/24 03:31:16;;;;;;;2.60;0.30;;;6.90;99.90;;;;;;5115764;28;20424;-61
2022/11/24 03:33:43;;;;;;;0.90;0.40;;;6.90;99.90;;;;;;5115754;28;20420;-63
2022/11/24 03:36:11;;;;;;;1.30;0.40;;;6.90;99.90;;;;;;5114560;28;20872;-60
2022/11/24 03:38:38;;;;;;;1.00;0.30;;;6.90;99.90;;;;;;5115636;28;20499;-61
2022/11/24 03:41:05;;;;;;;0.60;0.30;;;6.90;99.90;;;;;;5115737;28;21011;-61
2022/11/24 03:43:32;;;;;;;1.20;0.30;;;6.80;99.90;;;;;;5115814;28;20715;-61
2022/11/24 03:45:59;;;;;;;2.20;0.30;;;6.80;99.90;;;;;;5116283;28;20538;-61
2022/11/24 03:48:26;;;;;;;0.50;0.20;;;6.90;99.90;;;;;;5115380;28;20408;-61
2022/11/24 03:50:55;;;;;;;1.50;0.40;;;6.90;99.90;;;;;;5119595;28;20846;-62
2022/11/24 03:53:25;;;;;;;0.90;0.30;;;6.90;99.90;;;;;;5119671;28;20416;-61
2022/11/24 03:55:51;;;;;;;0.82;0.30;;;6.90;99.90;;;;;;5118514;28;20420;-61
2022/11/24 03:58:18;;;;;;;1.20;0.40;;;6.80;99.90;;;;;;5118919;28;20416;-62
2022/11/24 04:00:46;;;;;;;1.50;0.40;;;6.80;99.90;;;;;;5119065;28;20428;-60
2022/11/24 04:03:12;;;;;;;2.20;0.45;;;6.80;99.90;;;;;;5118448;28;20455;-61
2022/11/24 04:05:39;;;;;;;0.90;0.50;;;6.80;99.90;;;;;;5118816;28;20415;-61
2022/11/24 04:08:06;;;;;;;1.70;0.38;;;6.80;99.90;;;;;;5119310;28;20495;-61
2022/11/24 04:10:36;;;;;;;0.80;0.30;;;6.80;99.90;;;;;;5119095;28;20456;-61
2022/11/24 04:13:03;;;;;;;2.00;0.40;;;6.80;99.90;;;;;;5118782;28;20898;-61
2022/11/24 04:15:30;;;;;;;0.70;0.40;;;6.70;99.90;;;;;;5119776;28;20426;-60
2022/11/24 04:17:57;;;;;;;1.40;0.30;;;6.80;99.90;;;;;;5118850;28;20435;-60
2022/11/24 04:20:24;;;;;;;0.90;0.30;;;6.80;99.90;;;;;;5119445;28;20534;-61
2022/11/24 04:22:51;;;;;;;2.70;0.30;;;6.70;99.90;;;;;;5119503;28;20408;-61
2022/11/24 04:25:18;;;;;;;1.20;0.30;;;6.80;99.90;;;;;;5119141;28;20424;-61
2022/11/24 04:27:51;;;;;;;0.90;0.30;;;6.80;99.90;;;;;;5119294;28;20412;-61
2022/11/24 04:30:19;;;;;;;1.77;0.30;;;6.90;99.90;;;;;;5117252;28;20420;-61
2022/11/24 04:32:46;;;;;;;1.50;0.40;;;6.90;99.90;;;;;;5118833;28;20514;-61
2022/11/24 04:35:13;;;;;;;1.25;0.30;;;6.90;99.90;;;;;;5118987;28;20430;-62
2022/11/24 04:37:41;;;;;;;1.60;0.30;;;6.90;99.90;;;;;;5119336;28;20460;-61
2022/11/24 04:40:09;;;;;;;1.00;0.30;;;7.00;99.90;;;;;;5119302;28;20814;-62
2022/11/24 04:42:36;;;;;;;1.85;0.40;;;7.00;99.90;;;;;;5118785;28;20413;-61
2022/11/24 04:45:06;;;;;;;1.20;0.30;;;7.00;99.90;;;;;;5119107;28;20867;-62
2022/11/24 04:47:33;;;;;;;1.35;0.30;;;7.10;99.90;;;;;;5118664;28;20408;-61
2022/11/24 04:50:00;;;;;;;1.20;0.30;;;7.10;99.90;;;;;;5118914;28;20502;-61
2022/11/24 04:52:27;;;;;;;1.10;0.30;;;7.10;99.90;;;;;;5118569;28;20747;-61
2022/11/24 04:54:54;;;;;;;1.75;0.40;;;7.10;99.90;;;;;;5118623;28;20742;-62
2022/11/24 04:57:22;;;;;;;2.05;0.43;;;7.10;99.90;;;;;;5118566;28;20450;-62
2022/11/24 04:59:50;;;;;;;1.60;0.40;;;7.10;99.90;;;;;;5117631;28;20523;-62
2022/11/24 05:02:18;;;;;;;1.67;0.40;;;7.00;99.90;;;;;;5117108;28;20420;-62
2022/11/24 05:04:45;;;;;;;1.38;0.40;;;7.00;99.90;;;;;;5118407;28;20422;-62
2022/11/24 05:07:13;;;;;;;1.00;0.30;;;7.00;99.90;;;;;;5118586;28;20422;-62
2022/11/24 05:10:33;;;;;;;1.33;0.40;;;7.00;99.90;;;;;;5118092;28;20578;-63
2022/11/24 05:12:30;;;;;;;0.70;0.40;;;7.00;99.90;;;;;;5117710;28;20754;-62
2022/11/24 05:14:58;;;;;;;1.40;0.30;;;7.00;99.90;;;;;;5118253;28;20475;-62
2022/11/24 05:17:28;;;;;;;0.85;0.38;;;7.00;99.90;;;;;;5117710;28;20452;-61
2022/11/24 05:19:55;;;;;;;1.33;0.32;;;6.90;99.90;;;;;;5117564;28;20424;-62
2022/11/24 05:22:22;;;;;;;1.27;0.30;;;7.00;99.90;;;;;;5117127;28;20416;-61
2022/11/24 05:24:49;;;;;;;0.90;0.30;;;7.00;99.90;;;;;;5117834;28;20502;-62
2022/11/24 05:27:15;;;;;;;1.20;0.32;;;7.00;99.90;;;;;;5115445;28;20431;-62
2022/11/24 05:29:42;;;;;;;2.85;0.40;;;7.10;99.90;;;;;;5117626;28;20430;-61
2022/11/24 05:32:09;;;;;;;1.50;0.40;;;7.10;99.90;;;;;;5116972;28;20903;-63
2022/11/24 05:34:37;;;;;;;4.00;0.50;;;7.10;99.90;;;;;;5117749;28;20431;-62
2022/11/24 05:37:04;;;;;;;1.70;0.40;;;7.00;99.90;;;;;;5115975;28;20427;-62
2022/11/24 05:39:32;;;;;;;2.30;0.40;;;7.10;99.90;;;;;;5117623;28;20424;-62
2022/11/24 05:41:59;;;;;;;1.00;0.40;;;7.10;99.90;;;;;;5117380;28;20724;-62
2022/11/24 05:44:26;;;;;;;1.00;0.30;;;7.10;99.90;;;;;;5117229;28;20903;-62
2022/11/24 05:46:52;;;;;;;2.70;0.50;;;7.10;99.90;;;;;;5117684;28;20419;-63
2022/11/24 05:49:19;;;;;;;2.03;0.50;;;7.10;99.90;;;;;;5116336;28;20946;-62
2022/11/24 05:51:47;;;;;;;0.90;0.30;;;7.10;99.90;;;;;;5117316;28;20424;-62
2022/11/24 05:54:14;;;;;;;0.80;0.40;;;7.10;99.90;;;;;;5116658;28;20514;-62
2022/11/24 05:56:41;;;;;;;1.52;0.38;;;7.10;99.90;;;;;;5117590;28;20791;-62
2022/11/24 05:59:08;;;;;;;2.40;0.40;;;7.20;99.90;;;;;;5117056;28;20426;-61
2022/11/24 06:01:35;;;;;;;2.38;0.40;;;7.20;99.90;;;;;;5117338;28;20419;-61
2022/11/24 06:04:02;;;;;;;2.97;0.90;;;7.20;99.90;;;;;;5115941;28;20416;-61
2022/11/24 06:06:28;;;;;;;1.95;0.50;;;7.20;99.90;;;;;;5115433;28;20426;-62
2022/11/24 06:08:57;;;;;;;2.42;0.55;;;7.30;99.90;;;;;;5115819;28;20520;-62
2022/11/24 06:11:23;;;;;;;1.00;0.50;;;7.20;99.90;;;;;;5115439;28;20727;-61
2022/11/24 06:13:50;;;;;;;1.05;0.30;;;7.30;99.90;;;;;;5115034;28;20415;-61
2022/11/24 06:16:17;;;;;;;1.50;0.40;;;7.30;99.90;;;;;;5116156;28;20420;-63
2022/11/24 06:18:44;;;;;;;0.80;0.40;;;7.30;99.90;;;;;;5116529;28;20463;-61
2022/11/24 06:21:11;;;;;;;1.00;0.40;;;7.30;99.90;;;;;;5116869;28;20424;-61
2022/11/24 06:23:37;;;;;;;2.50;0.40;;;7.30;99.90;;;;;;5116679;28;20534;-61
2022/11/24 06:26:06;;;;;;;2.30;0.40;;;7.30;99.90;;;;;;5116337;28;20424;-62
2022/11/24 06:28:33;;;;;;;1.50;0.38;;;7.30;99.90;;;;;;5116096;28;20432;-61
2022/11/24 06:31:04;;;;;;;1.90;0.32;;;7.30;99.90;;;;;;5116488;28;20835;-61
2022/11/24 06:33:33;;;;;;;2.75;0.40;;;7.30;99.90;;;;;;5115637;28;20415;-61
2022/11/24 06:36:02;;;;;;;1.60;0.40;;;7.40;99.90;;;;;;5115817;28;20424;-61
2022/11/24 06:38:29;;;;;;;3.35;0.50;;;7.50;99.90;;;;;;5116015;28;20428;-62
2022/11/24 06:41:00;;;;;;;1.40;0.40;;;7.60;99.90;;;;;;5116151;28;20428;-60
2022/11/24 06:43:30;;;;;;;1.80;0.40;;;7.60;99.90;;;;;;5114826;28;20459;-62
2022/11/24 06:45:57;;;;;;;1.70;0.40;;;7.60;99.90;;;;;;5113193;28;20424;-62
2022/11/24 06:48:25;;;;;;;3.08;0.50;;;7.60;99.90;;;;;;5115201;28;20412;-62
2022/11/24 06:50:53;;;;;;;2.63;0.50;;;7.60;99.90;;;;;;5115771;28;20424;-62
2022/11/24 06:53:19;;;;;;;1.35;0.50;;;7.60;99.90;;;;;;5115581;28;20506;-62
2022/11/24 06:55:47;;;;;;;1.70;0.50;;;7.70;99.90;;;;;;5113700;28;20430;-61
2022/11/24 06:58:14;;;;;;;4.07;0.50;;;7.70;99.90;;;;;;5113784;28;20428;-61
2022/11/24 07:00:42;;;;;;;1.55;0.50;;;7.70;99.90;;;;;;5115125;28;20507;-62
2022/11/24 07:03:15;;;;;;;3.23;0.50;;;7.80;99.90;;;;;;5114700;28;20831;-62
2022/11/24 07:05:42;;;;;;;2.20;0.50;;;7.90;99.90;;;;;;5114221;28;20424;-62
2022/11/24 07:08:09;;;;;;;3.50;0.50;;;7.90;99.90;;;;;;5114591;28;20447;-61
2022/11/24 07:10:35;;;;;;;2.00;0.50;;;7.90;99.90;;;;;;5114343;28;20416;-61
2022/11/24 07:13:03;;;;;;;2.80;0.50;;;7.90;99.90;;;;;;5113954;28;21079;-61
2022/11/24 07:15:30;;;;;;;1.40;0.40;;;7.90;99.90;;;;;;5113880;28;20467;-61
2022/11/24 07:17:58;;;;;;;0.90;0.40;;;7.80;99.90;;;;;;5094449;28;20422;-61
2022/11/24 07:20:25;;;;;;;2.03;0.40;;;7.80;99.90;;;;;;5092216;28;20463;-62
2022/11/24 07:22:56;;;;;;;1.27;0.40;;;7.80;99.90;;;;;;5090820;28;20512;-62
2022/11/24 07:25:23;;;;;;;3.00;0.50;;;7.80;99.90;;;;;;5089486;28;20841;-61
2022/11/24 07:27:50;;;;;;;2.22;1.00;;;7.80;99.90;;;;;;5090458;28;20464;-61
2022/11/24 07:30:17;;;;;;;2.28;0.50;;;7.80;99.90;;;;;;5090598;28;20432;-62
2022/11/24 07:32:44;;;;;;;2.15;0.50;;;7.80;99.90;;;;;;5091963;28;20420;-61
2022/11/24 07:35:12;;;;;;;1.40;0.50;;;7.80;99.90;;;;;;5091650;28;20425;-61
2022/11/24 07:37:38;;;;;;;3.63;0.50;;;7.80;99.90;;;;;;5092525;28;20438;-61
2022/11/24 07:40:06;;;;;;;2.92;0.50;;;7.80;99.90;;;;;;5090530;28;20438;-61
2022/11/24 07:42:33;;;;;;;1.73;0.50;;;7.70;99.90;;;;;;5092323;28;20445;-61
2022/11/24 07:45:00;;;;;;;2.90;0.60;;;7.70;99.90;;;;;;5091771;28;20426;-61
2022/11/24 07:47:27;;;;;;;5.18;0.52;;;7.80;99.90;;;;;;5092626;28;20410;-60
2022/11/24 07:49:54;;;;;;;1.65;0.40;;;7.80;99.90;;;;;;5090233;28;20429;-59
2022/11/24 07:52:25;;;;;;;1.60;0.40;;;7.80;99.90;;;;;;5091977;28;20424;-59
2022/11/24 07:54:52;;;;;;;2.80;0.50;;;7.90;99.90;;;;;;5091568;28;20433;-59
2022/11/24 07:57:19;;;;;;;2.20;0.40;;;7.90;99.90;;;;;;5092714;28;20847;-59
2022/11/24 07:59:45;;;;;;;1.10;0.40;;;7.90;99.90;;;;;;5093348;28;20465;-59
2022/11/24 08:02:13;;;;;;;2.20;0.40;;;8.00;99.90;;;;;;5092501;28;20468;-60
2022/11/24 08:04:40;;;;;;;1.40;0.40;;;8.10;99.90;;;;;;5092947;28;20560;-60
2022/11/24 08:07:06;;;;;;;1.17;0.30;;;8.10;99.90;;;;;;5093858;28;20418;-60
2022/11/24 08:09:34;;;;;;;2.60;0.40;;;8.10;99.90;;;;;;5093429;28;20430;-61
2022/11/24 08:12:01;;;;;;;2.30;0.40;;;8.10;99.90;;;;;;5093072;28;20418;-60
2022/11/24 08:14:28;;;;;;;1.70;0.70;;;8.10;99.90;;;;;;5093134;28;20793;-60
2022/11/24 08:16:55;;;;;;;2.00;0.40;;;8.00;99.90;;;;;;5093265;28;20424;-60
2022/11/24 08:19:22;;;;;;;1.30;0.50;;;8.00;99.90;;;;;;5093045;28;20600;-59
2022/11/24 08:21:49;;;;;;;1.40;0.50;;;8.00;99.90;;;;;;5093526;28;20832;-60
2022/11/24 08:24:16;;;;;;;0.90;0.40;;;8.00;99.90;;;;;;5093052;28;20432;-59
2022/11/24 08:26:44;;;;;;;2.20;0.30;;;8.00;99.90;;;;;;5093616;28;20434;-59
2022/11/24 08:29:11;;;;;;;1.10;0.30;;;8.10;99.90;;;;;;5092170;28;21025;-59
2022/11/24 08:31:39;;;;;;;1.98;0.30;;;8.10;99.90;;;;;;5093570;28;20717;-60
2022/11/24 08:34:06;;;;;;;1.20;0.40;;;8.10;99.90;;;;;;5093505;28;20528;-60
2022/11/24 08:36:34;;;;;;;1.10;0.30;;;8.10;99.90;;;;;;5095925;28;20421;-60
2022/11/24 08:39:01;;;;;;;1.10;0.20;;;8.10;99.90;;;;;;5094364;28;20422;-59
2022/11/24 08:41:29;;;;;;;1.40;0.22;;;8.20;99.90;;;;;;5094717;28;20785;-61
2022/11/24 08:43:57;;;;;;;0.52;0.30;;;8.30;99.90;;;;;;5095479;28;20461;-58
2022/11/24 08:46:24;;;;;;;0.80;0.20;;;8.20;99.90;;;;;;5095950;28;20528;-59
2022/11/24 08:48:54;;;;;;;0.60;0.20;;;8.20;99.90;;;;;;5095559;28;20410;-59
2022/11/24 08:51:24;;;;;;;0.60;0.20;;;8.20;99.90;;;;;;5094478;28;20841;-59
2022/11/24 08:53:54;;;;;;;0.63;0.20;;;8.30;99.90;;;;;;5096291;28;20461;-59
2022/11/24 08:56:21;;;;;;;0.98;0.30;;;8.30;99.90;;;;;;5095708;28;20424;-59
2022/11/24 08:58:48;;;;;;;0.50;0.25;;;8.30;99.90;;;;;;5096367;28;20691;-59
2022/11/24 09:01:17;;;;;;;0.93;0.20;;;8.20;99.90;;;;;;5093918;28;20702;-59
2022/11/24 09:03:46;;;;;;;0.40;0.20;;;8.10;99.90;;;;;;5096103;28;20499;-59
2022/11/24 09:06:13;;;;;;;0.50;0.20;;;8.10;99.90;;;;;;5094570;28;20525;-59
2022/11/24 09:08:40;;;;;;;0.70;0.20;;;8.10;99.90;;;;;;5095813;28;20414;-60
2022/11/24 09:11:09;;;;;;;0.50;0.20;;;8.10;99.90;;;;;;5095254;28;20425;-59
2022/11/24 09:13:37;;;;;;;0.80;0.20;;;8.20;99.90;;;;;;5096632;28;20814;-59
2022/11/24 09:16:05;;;;;;;0.50;0.20;;;8.20;99.90;;;;;;5095652;28;20428;-60
2022/11/24 09:18:33;;;;;;;0.60;0.20;;;8.20;99.90;;;;;;5096316;28;20436;-60
2022/11/24 09:21:07;;;;;;;0.60;0.20;;;8.30;99.90;;;;;;5095866;28;20792;-60
2022/11/24 09:23:34;;;;;;;0.50;0.20;;;8.40;99.90;;;;;;5096243;28;20721;-61
2022/11/24 09:26:04;;;;;;;0.43;0.20;;;8.60;99.90;;;;;;5096207;28;20418;-60
2022/11/24 09:28:31;;;;;;;1.08;0.30;;;8.80;99.90;;;;;;5095976;28;20418;-59
2022/11/24 09:31:01;;;;;;;0.90;0.20;;;8.70;99.90;;;;;;5095604;28;20418;-60
2022/11/24 09:33:28;;;;;;;0.80;0.20;;;8.70;99.90;;;;;;5097004;28;20410;-61
2022/11/24 09:35:56;;;;;;;1.25;0.20;;;8.70;99.90;;;;;;5096017;28;20414;-59
2022/11/24 09:38:23;;;;;;;0.40;0.13;;;8.70;99.90;;;;;;5095613;28;20480;-60
2022/11/24 09:40:51;;;;;;;0.40;0.20;;;8.60;99.90;;;;;;5095291;28;20782;-59
2022/11/24 09:43:26;;;;;;;0.40;0.20;;;8.60;99.90;;;;;;5095348;28;20428;-59
2022/11/24 09:46:00;;;;;;;0.40;0.10;;;8.60;99.90;;;;;;5094471;28;20441;-59
2022/11/24 09:48:30;;;;;;;0.37;0.20;;;8.60;99.90;;;;;;5093585;28;20456;-59
2022/11/24 09:51:02;;;;;;;0.30;0.20;;;8.50;99.90;;;;;;5094025;28;20474;-59
2022/11/24 09:53:34;;;;;;;0.60;0.40;;;8.40;99.90;;;;;;5095282;28;20429;-59
2022/11/24 09:56:09;;;;;;;0.60;0.30;;;8.40;99.90;;;;;;5095388;28;20425;-60
2022/11/24 09:58:43;;;;;;;1.13;0.20;;;8.40;99.90;;;;;;5095467;28;20516;-63
2022/11/24 10:01:15;;;;;;;1.17;0.40;;;8.50;99.90;;;;;;5094421;28;20426;-60
2022/11/24 10:03:43;;;;;;;0.70;0.30;;;8.50;99.90;;;;;;5094429;28;20413;-60
2022/11/24 10:06:20;;;;;;;1.10;0.30;;;8.60;99.90;;;;;;5095202;28;20424;-60
2022/11/24 10:09:20;;;;;;;0.60;0.20;;;8.80;99.90;;;;;;5094859;28;20829;-56
2022/11/24 10:11:58;;;;;;;0.90;0.20;;;8.80;99.90;;;;;;5078822;28;20752;-54
2022/11/24 10:14:57;;;;;;;0.50;0.20;;;8.80;99.90;;;;;;5095190;28;20463;-55
2022/11/24 10:17:35;;;;;;;0.40;0.20;;;8.80;99.90;;;;;;5095467;28;20717;-54
2022/11/24 10:20:09;;;;;;;0.50;0.20;;;8.80;99.90;;;;;;5106128;28;20436;-53
2022/11/24 10:22:47;;;;;;;0.40;0.20;;;9.00;99.90;;;;;;5108314;28;20435;-56
2022/11/24 10:25:21;;;;;;;1.10;0.30;;;9.10;99.90;;;;;;5106381;28;20852;-56
2022/11/24 10:27:54;;;;;;;0.40;0.20;;;9.00;99.90;;;;;;5108668;28;20432;-55
2022/11/24 10:30:23;;;;;;;0.98;0.25;;;9.10;99.90;;;;;;5095779;28;20441;-56
2022/11/24 10:32:56;;;;;;;0.30;0.10;;;9.00;99.90;;;;;;5093287;28;20426;-55
2022/11/24 10:35:29;;;;;;;0.60;0.20;;;8.90;99.90;;;;;;5095985;28;20445;-55
2022/11/24 10:38:07;;;;;;;0.35;0.20;;;8.90;99.90;;;;;;5092932;28;20486;-55
2022/11/24 10:40:39;;;;;;;0.60;0.20;;;8.90;99.90;;;;;;5100146;28;20423;-56
2022/11/24 10:43:10;;;;;;;0.67;0.20;;;8.90;99.90;;;;;;5105577;28;20426;-60
2022/11/24 10:45:39;;;;;;;0.30;0.20;;;9.10;99.90;;;;;;5103699;28;20479;-52
2022/11/24 10:48:12;;;;;;;0.67;0.27;;;9.20;99.90;;;;;;5095664;28;20509;-54
2022/11/24 10:50:41;;;;;;;0.40;0.20;;;9.30;99.90;;;;;;5100953;28;20867;-56
2022/11/24 10:53:16;;;;;;;0.50;0.20;;;9.20;99.90;;;;;;5101537;28;20465;-54
2022/11/24 10:56:01;;;;;;;0.40;0.20;;;9.20;99.90;;;;;;5112535;28;20507;-53
2022/11/24 10:58:29;;;;;;;0.70;0.20;;;9.30;99.90;;;;;;5106298;28;20428;-58
2022/11/24 11:00:59;;;;;;;1.00;0.20;;;9.30;99.90;;;;;;5105579;28;20461;-68
2022/11/24 11:03:28;;;;;;;1.00;0.20;;;9.40;99.90;;;;;;5113250;28;20424;-69
2022/11/24 11:05:57;;;;;;;1.90;0.20;;;9.60;99.90;;;;;;5115103;28;20412;-70
2022/11/24 11:08:29;;;;;;;0.70;0.40;;;9.60;99.90;;;;;;5113587;28;20417;-68
2022/11/24 11:11:19;;;;;;;0.40;0.20;;;9.70;99.90;;;;;;5114074;28;20435;-69
2022/11/24 11:13:55;;;;;;;0.90;0.30;;;9.70;99.90;;;;;;5116234;28;20419;-62
2022/11/24 11:16:32;;;;;;;0.90;0.20;;;9.70;99.90;;;;;;5115273;28;20798;-63
2022/11/24 11:19:00;;;;;;;0.70;0.20;;;9.60;99.90;;;;;;5115581;28;20516;-62
2022/11/24 11:21:31;;;;;;;0.50;0.20;;;9.60;99.90;;;;;;5115516;28;20735;-62
2022/11/24 11:24:00;;;;;;;1.17;0.30;;;9.70;99.90;;;;;;5115253;28;20442;-64
2022/11/24 11:26:36;;;;;;;0.70;0.30;;;9.70;83.70;;;;;;5114724;28;20515;-62
2022/11/24 11:29:18;;;;;;;0.65;0.20;;;9.70;67.10;;;;;;5096506;28;20568;-63
2022/11/24 11:31:57;;;;;;;0.60;0.20;;;9.80;62.30;;;;;;5094880;28;20430;-63
2022/11/24 11:34:25;;;;;;;0.70;0.20;;;9.70;73.50;;;;;;5095670;28;20467;-63
2022/11/24 11:36:54;;;;;;;0.60;0.20;;;9.70;80.70;;;;;;5095171;28;20718;-63
2022/11/24 11:39:28;;;;;;;1.67;0.20;;;9.80;90.50;;;;;;5093060;28;20491;-64
2022/11/24 11:42:06;;;;;;;0.40;0.20;;;9.80;91.70;;;;;;5108050;28;20503;-63
2022/11/24 11:44:37;;;;;;;0.65;0.22;;;9.90;81.70;;;;;;5113717;28;20491;-63
2022/11/24 11:47:16;;;;;;;0.60;0.20;;;9.90;97.20;;;;;;5114018;28;20525;-63
2022/11/24 11:49:43;;;;;;;1.60;0.30;;;9.90;97.60;;;;;;5094321;28;20517;-63
2022/11/24 11:52:41;;;;;;;0.70;0.30;;;9.90;86.00;;;;;;5113537;28;20463;-63
2022/11/24 11:55:27;;;;;;;0.50;0.30;;;9.90;97.00;;;;;;5113965;28;20491;-63
2022/11/24 11:58:06;;;;;;;0.70;0.30;;;10.00;81.10;;;;;;5112310;28;20542;-63
2022/11/24 12:00:37;;;;;;;0.75;0.20;;;10.10;56.20;;;;;;5114600;28;20734;-63
2022/11/24 12:03:30;;;;;;;2.13;0.40;;;9.90;47.60;;;;;;5114145;28;20428;-62
2022/11/24 12:06:06;;;;;;;0.70;0.30;;;9.90;73.20;;;;;;5112093;28;20444;-63
2022/11/24 12:08:44;;;;;;;0.65;0.20;;;9.90;85.60;;;;;;5112383;28;20426;-63
2022/11/24 12:11:19;;;;;;;1.73;0.30;;;10.00;44.00;;;;;;5116005;28;20481;-63
2022/11/24 12:14:06;;;;;;;0.50;0.20;;;9.90;49.20;;;;;;5099372;28;20876;-63
2022/11/24 12:16:44;;;;;;;0.95;0.30;;;10.00;57.80;;;;;;5108671;28;20427;-63
2022/11/24 12:19:28;;;;;;;0.68;0.30;;;10.20;71.60;;;;;;5115273;28;20507;-62
2022/11/24 12:22:06;;;;;;;0.80;0.40;;;10.70;37.90;;;;;;5117383;28;20591;-63
2022/11/24 12:24:43;;;;;;;0.50;0.20;;;10.80;1.00;;;;;;5109796;28;20420;-63
2022/11/24 12:27:18;;;;;;;0.70;0.30;;;11.00;2.90;;;;;;5096319;28;20852;-62
2022/11/24 12:30:10;;;;;;;0.80;0.40;;;11.20;1.00;;;;;;5104906;28;20451;-63
2022/11/24 12:33:01;;;;;;;1.00;0.40;;;11.30;1.00;;;;;;5096593;28;20436;-63
2022/11/24 12:35:33;;;;;;;0.60;0.30;;;11.40;1.00;;;;;;5094717;28;20422;-62
2022/11/24 12:38:12;;;;;;;1.60;0.30;;;11.20;1.00;;;;;;5096822;28;20426;-63
2022/11/24 12:40:54;;;;;;;1.60;0.30;;;11.20;1.00;;;;;;5094252;28;20433;-63
2022/11/24 12:43:30;;;;;;;0.80;0.30;;;11.10;1.00;;;;;;5096100;28;20424;-63
2022/11/24 12:46:01;;;;;;;2.20;0.30;;;11.10;1.00;;;;;;5096426;28;20414;-62
2022/11/24 12:48:49;;;;;;;1.50;0.40;;;11.10;1.00;;;;;;5095485;28;20440;-63
2022/11/24 12:51:18;;;;;;;2.10;0.40;;;11.10;1.00;;;;;;5095752;28;20517;-62
2022/11/24 12:53:47;;;;;;;0.90;0.30;;;11.30;1.00;;;;;;5096416;28;20422;-61
2022/11/24 12:56:16;;;;;;;2.05;0.30;;;11.20;1.00;;;;;;5095164;28;20457;-61
2022/11/24 12:58:51;;;;;;;1.30;0.30;;;11.00;1.00;;;;;;5094859;28;20505;-64
2022/11/24 13:01:30;;;;;;;1.10;0.30;;;10.90;1.00;;;;;;5094398;28;20516;-61
2022/11/24 13:04:08;;;;;;;1.95;0.40;;;10.90;1.00;;;;;;5093292;28;20565;-62
2022/11/24 13:06:43;;;;;;;1.38;0.40;;;11.10;1.00;;;;;;5094877;28;20432;-63
2022/11/24 13:09:10;;;;;;;0.60;0.30;;;11.30;1.00;;;;;;5094946;28;20514;-62
2022/11/24 13:11:42;;;;;;;1.10;0.30;;;11.30;1.00;;;;;;5095735;28;20787;-64